createdAt,value
2022-12-08T00:46:19.086Z,22.58
2022-12-08T00:51:26.475Z,27.20
2022-12-08T00:56:50.905Z,23.30
2022-12-08T01:02:08.007Z,22.80
2022-12-08T01:07:30.261Z,22.50
2022-12-08T01:12:36.395Z,22.17
2022-12-08T01:17:52.987Z,21.40
2022-12-08T01:22:59.245Z,20.90
2022-12-08T01:28:03.069Z,20.55
2022-12-08T01:33:09.037Z,21.92
2022-12-08T01:38:16.460Z,20.58
2022-12-08T01:43:25.079Z,21.60
2022-12-08T01:48:29.216Z,19.77
2022-12-08T01:53:48.545Z,20.65
2022-12-08T01:58:59.387Z,23.10
2022-12-08T02:04:16.222Z,21.45
2022-12-08T02:09:22.871Z,20.40
2022-12-08T02:14:29.678Z,22.42
2022-12-08T02:20:16.215Z,23.63
2022-12-08T02:25:38.753Z,21.13
2022-12-08T02:30:51.034Z,21.98
2022-12-08T02:36:22.333Z,22.45
2022-12-08T02:41:38.272Z,21.58
2022-12-08T02:46:53.130Z,20.73
2022-12-08T02:51:58.587Z,22.00
2022-12-08T02:57:44.847Z,22.48
2022-12-08T03:03:46.726Z,21.17
2022-12-08T03:09:07.625Z,20.50
2022-12-08T03:14:28.912Z,21.13
2022-12-08T03:19:53.456Z,26.67
2022-12-08T03:33:27.475Z,19.98
2022-12-08T03:51:36.774Z,21.73
2022-12-08T04:09:47.064Z,25.40
2022-12-08T04:15:58.456Z,24.35
2022-12-08T04:21:16.649Z,20.45
2022-12-08T04:26:54.854Z,17.58
2022-12-08T04:44:05.209Z,15.52
2022-12-08T04:49:30.534Z,14.90
2022-12-08T04:54:33.973Z,14.48
2022-12-08T05:00:21.056Z,14.45
2022-12-08T05:20:50.728Z,29.73
2022-12-08T05:26:00.773Z,18.23
2022-12-08T05:31:00.536Z,14.02
2022-12-08T05:35:59.578Z,15.68
2022-12-08T05:40:58.739Z,16.85
2022-12-08T05:45:59.233Z,16.75
2022-12-08T05:50:58.141Z,16.77
2022-12-08T05:55:57.223Z,17.48
2022-12-08T06:00:59.095Z,18.77
2022-12-08T06:06:01.542Z,21.48
2022-12-08T06:11:03.615Z,18.05
2022-12-08T06:16:07.521Z,17.38
2022-12-08T06:21:13.384Z,20.05
2022-12-08T06:26:16.727Z,41.65
2022-12-08T06:31:22.671Z,20.42
2022-12-08T06:36:24.620Z,18.60
2022-12-08T06:41:24.193Z,25.45
2022-12-08T06:46:29.291Z,21.50
2022-12-08T06:51:28.453Z,17.00
2022-12-08T06:56:28.297Z,17.70
2022-12-08T07:01:34.933Z,22.42
2022-12-08T07:06:34.267Z,19.27
2022-12-08T07:11:35.792Z,17.83
2022-12-08T07:16:36.812Z,28.65
2022-12-08T07:21:35.912Z,26.48
2022-12-08T07:26:35.319Z,25.27
2022-12-08T07:31:36.219Z,23.92
2022-12-08T07:36:43.214Z,24.27
2022-12-08T07:42:45.385Z,20.13
2022-12-08T07:49:27.201Z,19.20
2022-12-08T10:36:24.014Z,25.98
2022-12-08T10:41:50.482Z,22.63
2022-12-08T10:54:58.561Z,19.00
2022-12-08T11:08:18.460Z,19.65
2022-12-08T11:13:23.424Z,25.75
2022-12-08T11:18:27.128Z,24.50
2022-12-08T11:23:28.192Z,23.77
2022-12-08T11:28:28.709Z,26.02
2022-12-08T11:33:29.399Z,26.40
2022-12-08T11:38:29.746Z,29.45
2022-12-08T11:43:41.052Z,32.22
2022-12-08T11:48:48.756Z,31.20
2022-12-08T11:53:59.120Z,30.08
2022-12-08T11:59:03.867Z,28.02
2022-12-08T12:04:17.208Z,30.90
2022-12-08T12:09:21.015Z,28.85
2022-12-08T12:14:44.793Z,28.92
2022-12-08T12:24:47.746Z,26.58
2022-12-08T12:29:55.729Z,25.83
2022-12-08T12:34:58.560Z,26.63
2022-12-08T12:40:03.292Z,31.92
2022-12-08T12:45:29.553Z,33.08
2022-12-08T12:50:44.240Z,30.98
2022-12-08T12:55:55.350Z,28.90
2022-12-08T13:01:37.215Z,32.80
2022-12-08T13:06:42.950Z,31.50
2022-12-08T13:11:49.911Z,27.67
2022-12-08T13:16:56.385Z,28.30
2022-12-08T13:21:55.408Z,29.63
2022-12-08T13:27:35.638Z,30.67
2022-12-08T13:33:17.583Z,28.80
2022-12-08T13:38:21.050Z,24.42
2022-12-08T13:43:50.981Z,23.38
2022-12-08T13:59:47.058Z,22.85
2022-12-08T14:10:14.362Z,25.52
2022-12-08T14:15:17.902Z,22.80
2022-12-08T14:20:25.629Z,25.52
2022-12-08T14:25:25.659Z,23.02
2022-12-08T14:30:30.688Z,19.42
2022-12-08T14:35:33.485Z,18.95
2022-12-08T14:40:35.462Z,17.55
2022-12-08T14:45:35.585Z,18.77
2022-12-08T14:50:43.613Z,17.90
2022-12-08T14:55:44.901Z,17.88
2022-12-08T15:00:48.452Z,15.98
2022-12-08T15:05:56.889Z,21.40
2022-12-08T15:11:15.313Z,17.08
2022-12-08T15:16:28.358Z,20.67
2022-12-08T15:21:36.990Z,15.98
2022-12-08T15:26:41.319Z,20.55
2022-12-08T15:31:41.140Z,18.58
2022-12-08T15:36:43.181Z,20.95
2022-12-08T15:41:42.332Z,20.05
2022-12-08T15:46:41.620Z,19.63
2022-12-08T15:51:42.603Z,17.55
2022-12-08T15:57:17.195Z,16.98
2022-12-08T16:02:08.329Z,18.73
2022-12-08T16:07:22.534Z,19.63
2022-12-08T16:18:04.525Z,20.65
2022-12-08T16:23:19.728Z,17.55
2022-12-08T16:28:53.290Z,13.45
2022-12-08T16:33:52.646Z,14.27
2022-12-08T16:38:53.707Z,19.65
2022-12-08T16:43:53.705Z,19.30
2022-12-08T16:48:56.942Z,24.50
2022-12-08T16:59:01.256Z,20.05
2022-12-08T17:09:31.142Z,19.92
2022-12-08T17:14:35.120Z,20.85
2022-12-08T17:19:35.850Z,20.48
2022-12-08T17:24:52.031Z,23.48
2022-12-08T17:29:51.349Z,20.65
2022-12-08T17:34:50.460Z,20.73
2022-12-08T17:39:51.044Z,22.33
2022-12-08T17:44:51.349Z,19.33
2022-12-08T17:49:54.274Z,21.20
2022-12-08T17:55:00.516Z,21.80
2022-12-08T18:00:09.129Z,22.10
2022-12-08T18:05:13.021Z,22.63
2022-12-08T18:10:14.130Z,21.40
2022-12-08T18:15:20.819Z,20.85
2022-12-08T18:20:21.622Z,21.55
2022-12-08T18:25:25.073Z,20.92
2022-12-08T18:35:27.363Z,19.52
2022-12-08T18:40:28.542Z,22.15
2022-12-08T18:45:27.766Z,21.83
2022-12-08T18:50:30.240Z,23.20
2022-12-08T18:55:33.719Z,26.27
2022-12-08T19:00:32.897Z,25.10
2022-12-08T19:05:32.253Z,25.50
2022-12-08T19:10:32.490Z,28.73
2022-12-08T19:15:33.458Z,25.52
2022-12-08T19:20:32.789Z,27.92
2022-12-08T19:25:35.401Z,19.35
2022-12-08T19:30:39.778Z,24.63
2022-12-08T19:35:49.048Z,22.52
2022-12-08T19:41:08.850Z,20.80
2022-12-08T19:46:19.421Z,20.38
2022-12-08T19:51:20.922Z,19.77
2022-12-08T19:56:20.133Z,19.33
2022-12-08T20:01:21.925Z,20.88
2022-12-08T20:06:32.670Z,20.23
2022-12-08T20:11:31.892Z,18.17
2022-12-08T20:16:45.971Z,19.00
2022-12-08T20:22:17.924Z,19.40
2022-12-08T20:27:17.203Z,20.13
2022-12-08T20:32:18.835Z,18.90
2022-12-08T20:37:20.612Z,19.73
2022-12-08T20:42:24.261Z,17.65
2022-12-08T20:47:27.876Z,17.67
2022-12-08T20:52:30.720Z,19.40
2022-12-08T20:57:30.073Z,18.17
2022-12-08T21:02:33.685Z,18.13
2022-12-08T21:07:33.957Z,17.95
2022-12-08T21:12:33.692Z,19.85
2022-12-08T21:17:36.864Z,18.15
2022-12-08T21:22:36.171Z,17.45
2022-12-08T21:27:35.440Z,18.08
2022-12-08T21:32:36.701Z,18.88
2022-12-08T21:37:38.361Z,18.30
2022-12-08T21:42:47.256Z,23.30
2022-12-08T21:47:50.076Z,18.92
2022-12-08T21:52:50.457Z,34.88
2022-12-08T21:58:09.365Z,22.70
2022-12-08T22:03:14.218Z,21.17
2022-12-08T22:09:29.740Z,19.73
2022-12-08T22:14:29.487Z,19.35
2022-12-08T22:19:31.945Z,18.80
2022-12-08T22:24:32.552Z,19.00
2022-12-08T22:29:32.327Z,18.75
2022-12-08T22:34:42.224Z,18.25
2022-12-08T22:39:50.591Z,20.00
2022-12-08T22:44:49.766Z,22.27
2022-12-08T22:49:53.576Z,20.70
2022-12-08T22:54:52.791Z,21.17
2022-12-08T22:59:51.744Z,19.33
2022-12-08T23:04:56.750Z,19.77
2022-12-08T23:09:56.489Z,18.15
2022-12-08T23:14:55.572Z,19.25
2022-12-08T23:19:58.795Z,18.63
2022-12-08T23:29:58.116Z,17.65
2022-12-08T23:34:59.011Z,18.73
2022-12-08T23:39:58.180Z,17.83
2022-12-08T23:44:57.511Z,18.52
2022-12-08T23:49:59.035Z,18.65
2022-12-08T23:54:59.887Z,18.60
2022-12-08T23:59:59.299Z,21.02
